createdAt,value
2018-08-23T00:00:48.619Z,22.07
2018-08-23T00:01:48.641Z,21.91
2018-08-23T00:02:48.865Z,21.96
2018-08-23T00:03:48.694Z,21.95
2018-08-23T00:04:48.713Z,21.93
2018-08-23T00:05:48.740Z,21.85
2018-08-23T00:06:48.766Z,21.89
2018-08-23T00:07:48.787Z,21.85
2018-08-23T00:08:48.839Z,21.80
2018-08-23T00:09:48.839Z,21.79
2018-08-23T00:10:48.860Z,21.70
2018-08-23T00:11:48.886Z,21.73
2018-08-23T00:12:48.911Z,21.76
2018-08-23T00:13:48.939Z,21.69
2018-08-23T00:14:48.960Z,21.72
2018-08-23T00:15:48.981Z,21.62
2018-08-23T00:16:49.076Z,21.55
2018-08-23T00:17:49.030Z,21.60
2018-08-23T00:18:49.055Z,21.52
2018-08-23T00:19:49.079Z,21.60
2018-08-23T00:20:49.106Z,21.55
2018-08-23T00:21:49.129Z,21.54
2018-08-23T00:22:49.152Z,21.55
2018-08-23T00:23:49.178Z,21.52
2018-08-23T00:24:49.201Z,21.45
2018-08-23T00:25:49.227Z,21.42
2018-08-23T00:26:49.249Z,21.39
2018-08-23T00:27:49.277Z,21.40
2018-08-23T00:28:49.298Z,21.48
2018-08-23T00:29:49.321Z,21.36
2018-08-23T00:30:49.345Z,21.39
2018-08-23T00:31:49.371Z,21.33
2018-08-23T00:32:49.397Z,21.37
2018-08-23T00:33:49.420Z,21.42
2018-08-23T00:34:49.446Z,21.30
2018-08-23T00:35:49.467Z,21.27
2018-08-23T00:36:49.497Z,21.33
2018-08-23T00:37:49.516Z,21.30
2018-08-23T00:38:49.539Z,21.21
2018-08-23T00:39:49.564Z,21.21
2018-08-23T00:40:49.591Z,21.24
2018-08-23T00:41:49.615Z,21.15
2018-08-23T00:42:49.638Z,21.21
2018-08-23T00:43:49.660Z,21.17
2018-08-23T00:44:49.688Z,21.14
2018-08-23T00:45:49.710Z,21.09
2018-08-23T00:46:49.733Z,21.00
2018-08-23T00:47:49.768Z,21.03
2018-08-23T00:48:49.781Z,21.07
2018-08-23T00:49:49.807Z,21.06
2018-08-23T00:50:49.830Z,21.06
2018-08-23T00:51:49.853Z,21.00
2018-08-23T00:52:49.879Z,21.03
2018-08-23T00:53:49.905Z,21.03
2018-08-23T00:54:49.928Z,20.96
2018-08-23T00:55:49.950Z,21.00
2018-08-23T00:56:49.972Z,20.96
2018-08-23T00:57:49.997Z,20.97
2018-08-23T00:58:50.024Z,20.92
2018-08-23T00:59:50.051Z,20.96
2018-08-23T01:00:50.077Z,20.93
2018-08-23T01:01:50.093Z,20.82
2018-08-23T01:02:50.119Z,20.90
2018-08-23T01:03:50.162Z,20.81
2018-08-23T01:04:50.165Z,20.92
2018-08-23T01:05:50.191Z,20.87
2018-08-23T01:06:50.215Z,20.88
2018-08-23T01:07:50.236Z,20.78
2018-08-23T01:08:50.263Z,20.81
2018-08-23T01:09:50.283Z,20.78
2018-08-23T01:10:50.307Z,20.80
2018-08-23T01:11:50.331Z,20.77
2018-08-23T01:12:50.360Z,20.62
2018-08-23T01:13:50.381Z,20.77
2018-08-23T01:14:50.405Z,20.78
2018-08-23T01:15:50.429Z,20.72
2018-08-23T01:16:50.452Z,20.70
2018-08-23T01:17:50.477Z,20.66
2018-08-23T01:18:50.501Z,20.66
2018-08-23T01:19:50.525Z,20.70
2018-08-23T01:20:50.553Z,20.69
2018-08-23T01:21:50.572Z,20.60
2018-08-23T01:22:50.594Z,20.62
2018-08-23T01:23:50.619Z,20.59
2018-08-23T01:24:50.642Z,20.56
2018-08-23T01:25:50.667Z,20.60
2018-08-23T01:26:50.691Z,20.52
2018-08-23T01:27:50.715Z,20.58
2018-08-23T01:28:50.740Z,20.50
2018-08-23T01:29:50.761Z,20.52
2018-08-23T01:30:50.807Z,20.44
2018-08-23T01:31:50.810Z,20.34
2018-08-23T01:32:50.831Z,20.36
2018-08-23T01:33:50.854Z,20.34
2018-08-23T01:34:50.879Z,20.31
2018-08-23T01:35:50.904Z,20.36
2018-08-23T01:36:50.931Z,20.34
2018-08-23T01:37:50.951Z,20.32
2018-08-23T01:38:50.988Z,20.37
2018-08-23T01:39:50.997Z,20.37
2018-08-23T01:40:51.022Z,20.47
2018-08-23T01:41:51.044Z,20.34
2018-08-23T01:42:51.067Z,20.34
2018-08-23T01:43:51.092Z,20.25
2018-08-23T01:44:51.113Z,20.22
2018-08-23T01:45:51.139Z,20.19
2018-08-23T01:46:51.163Z,20.22
2018-08-23T01:47:51.185Z,20.26
2018-08-23T01:48:51.209Z,20.25
2018-08-23T01:49:51.231Z,20.25
2018-08-23T01:50:51.255Z,20.24
2018-08-23T01:51:51.278Z,20.26
2018-08-23T01:52:51.301Z,20.09
2018-08-23T01:53:51.328Z,20.13
2018-08-23T01:54:51.349Z,20.13
2018-08-23T01:55:51.372Z,20.09
2018-08-23T01:56:51.403Z,20.14
2018-08-23T01:57:51.419Z,20.10
2018-08-23T01:58:51.446Z,20.10
2018-08-23T01:59:51.470Z,20.14
2018-08-23T02:00:51.491Z,20.21
2018-08-23T02:01:51.516Z,20.18
2018-08-23T02:02:51.537Z,20.11
2018-08-23T02:03:51.563Z,20.10
2018-08-23T02:04:51.586Z,19.96
2018-08-23T02:05:51.607Z,20.03
2018-08-23T02:06:51.632Z,19.95
2018-08-23T02:07:51.654Z,19.95
2018-08-23T02:08:51.677Z,19.96
2018-08-23T02:09:51.702Z,19.96
2018-08-23T02:10:51.727Z,19.89
2018-08-23T02:11:51.750Z,19.89
2018-08-23T02:12:51.773Z,19.96
2018-08-23T02:13:51.794Z,19.91
2018-08-23T02:14:51.821Z,19.99
2018-08-23T02:15:51.846Z,19.92
2018-08-23T02:16:51.866Z,19.91
2018-08-23T02:17:51.893Z,19.92
2018-08-23T02:18:51.913Z,19.86
2018-08-23T02:19:51.935Z,19.81
2018-08-23T02:20:51.957Z,19.92
2018-08-23T02:21:51.981Z,19.91
2018-08-23T02:22:52.008Z,19.84
2018-08-23T02:23:52.033Z,19.85
2018-08-23T02:24:52.051Z,19.95
2018-08-23T02:25:52.076Z,19.95
2018-08-23T02:26:52.101Z,19.94
2018-08-23T02:27:52.124Z,19.92
2018-08-23T02:28:52.145Z,19.99
2018-08-23T02:29:52.169Z,20.06
2018-08-23T02:30:52.193Z,20.00
2018-08-23T02:31:52.217Z,20.02
2018-08-23T02:32:52.240Z,19.94
2018-08-23T02:33:52.260Z,19.88
2018-08-23T02:34:52.436Z,19.82
2018-08-23T02:35:52.310Z,19.91
2018-08-23T02:36:52.333Z,19.89
2018-08-23T02:37:52.356Z,19.84
2018-08-23T02:38:52.377Z,19.89
2018-08-23T02:39:52.401Z,19.84
2018-08-23T02:40:52.431Z,19.85
2018-08-23T02:41:52.454Z,19.85
2018-08-23T02:42:52.476Z,19.79
2018-08-23T02:43:52.502Z,19.74
2018-08-23T02:44:52.521Z,19.82
2018-08-23T02:45:52.545Z,19.81
2018-08-23T02:46:52.565Z,19.73
2018-08-23T02:47:52.597Z,19.70
2018-08-23T02:48:52.614Z,19.79
2018-08-23T02:49:52.635Z,19.79
2018-08-23T02:50:52.661Z,19.79
2018-08-23T02:51:52.681Z,19.79
2018-08-23T02:52:52.706Z,19.76
2018-08-23T02:53:52.730Z,19.76
2018-08-23T02:54:52.751Z,19.77
2018-08-23T02:55:52.782Z,19.74
2018-08-23T02:56:52.797Z,19.77
2018-08-23T02:57:52.820Z,19.77
2018-08-23T02:58:52.847Z,19.70
2018-08-23T02:59:52.871Z,19.71
2018-08-23T03:00:52.895Z,19.70
2018-08-23T03:01:52.916Z,19.74
2018-08-23T03:02:52.937Z,19.66
2018-08-23T03:03:52.960Z,19.63
2018-08-23T03:04:52.983Z,19.62
2018-08-23T03:05:53.012Z,19.62
2018-08-23T03:06:53.032Z,19.63
2018-08-23T03:07:53.057Z,19.62
2018-08-23T03:08:53.078Z,19.67
2018-08-23T03:09:53.101Z,19.58
2018-08-23T03:10:53.125Z,19.62
2018-08-23T03:11:53.151Z,19.67
2018-08-23T03:12:53.171Z,19.63
2018-08-23T03:13:53.199Z,19.58
2018-08-23T03:14:53.216Z,19.58
2018-08-23T03:15:53.242Z,19.58
2018-08-23T03:16:53.264Z,19.67
2018-08-23T03:17:53.286Z,19.69
2018-08-23T03:18:53.311Z,19.59
2018-08-23T03:19:53.335Z,19.67
2018-08-23T03:20:53.355Z,19.56
2018-08-23T03:21:53.377Z,19.58
2018-08-23T03:22:53.406Z,19.62
2018-08-23T03:23:53.424Z,19.62
2018-08-23T03:24:53.446Z,19.55
2018-08-23T03:25:53.472Z,19.58
2018-08-23T03:26:53.500Z,19.56
2018-08-23T03:27:53.517Z,19.56
2018-08-23T03:28:53.541Z,19.47
2018-08-23T03:29:53.564Z,19.56
2018-08-23T03:30:53.586Z,19.63
2018-08-23T03:31:53.609Z,19.64
2018-08-23T03:32:53.632Z,19.54
2018-08-23T03:33:53.656Z,19.56
2018-08-23T03:34:53.683Z,19.62
2018-08-23T03:35:53.701Z,19.56
2018-08-23T03:36:53.725Z,19.47
2018-08-23T03:37:53.750Z,19.62
2018-08-23T03:38:53.770Z,19.64
2018-08-23T03:39:53.797Z,19.64
2018-08-23T03:40:53.816Z,19.58
2018-08-23T03:41:53.839Z,19.54
2018-08-23T03:42:53.864Z,19.48
2018-08-23T03:43:53.889Z,19.49
2018-08-23T03:44:53.911Z,19.48
2018-08-23T03:45:53.934Z,19.49
2018-08-23T03:46:53.958Z,19.54
2018-08-23T03:47:53.980Z,19.45
2018-08-23T03:48:54.001Z,19.36
2018-08-23T03:49:54.028Z,19.36
2018-08-23T03:50:54.051Z,19.30
2018-08-23T03:51:54.073Z,19.27
2018-08-23T03:52:54.092Z,19.29
2018-08-23T03:53:54.118Z,19.26
2018-08-23T03:54:54.142Z,19.19
2018-08-23T03:55:54.168Z,19.34
2018-08-23T03:56:54.187Z,19.18
2018-08-23T03:57:54.209Z,19.27
2018-08-23T03:58:54.231Z,19.29
2018-08-23T03:59:54.256Z,19.22
2018-08-23T04:00:54.277Z,19.18
2018-08-23T04:01:54.301Z,19.22
2018-08-23T04:02:54.325Z,19.26
2018-08-23T04:03:54.353Z,19.26
2018-08-23T04:04:54.372Z,19.19
2018-08-23T04:05:54.446Z,19.14
2018-08-23T04:06:54.415Z,19.15
2018-08-23T04:07:54.438Z,19.16
2018-08-23T04:08:54.461Z,19.22
2018-08-23T04:09:54.483Z,19.24
2018-08-23T04:10:54.505Z,19.16
2018-08-23T04:11:54.531Z,19.16
2018-08-23T04:12:54.551Z,19.18
2018-08-23T04:13:54.577Z,19.19
2018-08-23T04:14:54.643Z,19.16
2018-08-23T04:15:54.622Z,19.24
2018-08-23T04:16:54.642Z,19.16
2018-08-23T04:17:54.665Z,19.19
2018-08-23T04:18:54.692Z,19.26
2018-08-23T04:19:54.712Z,19.24
2018-08-23T04:20:54.736Z,19.19
2018-08-23T04:21:54.757Z,19.24
2018-08-23T04:22:54.925Z,19.14
2018-08-23T04:23:54.803Z,19.19
2018-08-23T04:24:54.828Z,19.02
2018-08-23T04:25:54.848Z,19.07
2018-08-23T04:26:54.871Z,19.22
2018-08-23T04:27:54.898Z,19.16
2018-08-23T04:28:54.917Z,19.19
2018-08-23T04:29:54.939Z,19.16
2018-08-23T04:30:54.964Z,19.16
2018-08-23T04:31:54.988Z,19.22
2018-08-23T04:32:55.012Z,19.12
2018-08-23T04:33:55.033Z,19.18
2018-08-23T04:34:55.055Z,19.21
2018-08-23T04:35:55.082Z,19.29
2018-08-23T04:36:55.101Z,19.19
2018-08-23T04:37:55.126Z,19.18
2018-08-23T04:38:55.146Z,19.22
2018-08-23T04:39:55.170Z,19.31
2018-08-23T04:40:55.191Z,19.27
2018-08-23T04:41:55.216Z,19.27
2018-08-23T04:42:55.240Z,19.27
2018-08-23T04:43:55.262Z,19.24
2018-08-23T04:44:55.288Z,19.19
2018-08-23T04:45:55.308Z,19.19
2018-08-23T04:46:55.330Z,19.16
2018-08-23T04:47:55.353Z,19.15
2018-08-23T04:48:55.379Z,19.02
2018-08-23T04:49:55.398Z,19.16
2018-08-23T04:50:55.423Z,19.14
2018-08-23T04:51:55.451Z,19.12
2018-08-23T04:52:55.468Z,19.21
2018-08-23T04:53:55.491Z,19.26
2018-08-23T04:54:55.512Z,19.26
2018-08-23T04:55:55.536Z,19.18
2018-08-23T04:56:55.561Z,19.19
2018-08-23T04:57:55.585Z,19.29
2018-08-23T04:58:55.604Z,19.37
2018-08-23T04:59:55.632Z,19.31
2018-08-23T05:00:55.675Z,19.36
2018-08-23T05:01:55.673Z,19.34
2018-08-23T05:02:55.700Z,19.31
2018-08-23T05:03:55.733Z,19.34
2018-08-23T05:04:55.742Z,19.34
2018-08-23T05:05:55.765Z,19.30
2018-08-23T05:06:55.788Z,19.31
2018-08-23T05:07:55.811Z,19.39
2018-08-23T05:08:55.836Z,19.34
2018-08-23T05:09:55.868Z,19.36
2018-08-23T05:10:55.882Z,19.36
2018-08-23T05:11:55.907Z,19.39
2018-08-23T05:12:55.930Z,19.39
2018-08-23T05:13:55.986Z,19.45
2018-08-23T05:14:55.975Z,19.45
2018-08-23T05:15:55.999Z,19.45
2018-08-23T05:16:56.021Z,19.40
2018-08-23T05:17:56.048Z,19.34
2018-08-23T05:18:56.075Z,19.33
2018-08-23T05:19:56.091Z,19.37
2018-08-23T05:20:56.115Z,19.36
2018-08-23T05:21:56.134Z,19.34
2018-08-23T05:22:56.168Z,19.41
2018-08-23T05:23:56.184Z,19.52
2018-08-23T05:24:56.206Z,19.52
2018-08-23T05:25:56.228Z,19.64
2018-08-23T05:26:56.254Z,19.54
2018-08-23T05:27:56.277Z,19.56
2018-08-23T05:28:56.297Z,19.54
2018-08-23T05:29:56.381Z,19.49
2018-08-23T05:30:56.348Z,19.49
2018-08-23T05:31:56.371Z,19.63
2018-08-23T05:32:56.395Z,19.52
2018-08-23T05:33:56.415Z,19.62
2018-08-23T05:34:56.438Z,19.59
2018-08-23T05:35:56.461Z,19.63
2018-08-23T05:36:56.484Z,19.58
2018-08-23T05:37:56.507Z,19.66
2018-08-23T05:38:56.529Z,19.59
2018-08-23T05:39:56.557Z,19.67
2018-08-23T05:40:56.579Z,19.63
2018-08-23T05:41:56.599Z,19.64
2018-08-23T05:42:56.624Z,19.64
2018-08-23T05:43:56.649Z,19.84
2018-08-23T05:44:56.672Z,19.85
2018-08-23T05:45:56.697Z,19.91
2018-08-23T05:46:56.717Z,19.92
2018-08-23T05:47:56.744Z,19.91
2018-08-23T05:48:56.765Z,20.00
2018-08-23T05:49:56.791Z,20.03
2018-08-23T05:50:56.813Z,19.99
2018-08-23T05:51:56.837Z,20.10
2018-08-23T05:52:56.859Z,20.10
2018-08-23T05:53:56.884Z,20.10
2018-08-23T05:54:56.907Z,20.11
2018-08-23T05:55:56.928Z,20.13
2018-08-23T05:56:56.952Z,20.26
2018-08-23T05:57:56.980Z,20.22
2018-08-23T05:58:56.999Z,20.37
2018-08-23T05:59:57.023Z,20.32
2018-08-23T06:00:57.048Z,20.37
2018-08-23T06:01:57.073Z,20.34
2018-08-23T06:02:57.099Z,20.22
2018-08-23T06:03:57.119Z,20.13
2018-08-23T06:04:57.141Z,20.16
2018-08-23T06:05:57.166Z,20.22
2018-08-23T06:06:57.191Z,20.19
2018-08-23T06:07:57.216Z,20.24
2018-08-23T06:08:57.235Z,20.28
2018-08-23T06:09:57.263Z,20.25
2018-08-23T06:10:57.285Z,20.25
2018-08-23T06:11:57.311Z,20.21
2018-08-23T06:12:57.333Z,20.25
2018-08-23T06:13:57.358Z,20.39
2018-08-23T06:14:57.386Z,20.39
2018-08-23T06:15:57.406Z,20.40
2018-08-23T06:16:57.431Z,20.59
2018-08-23T06:17:57.451Z,20.67
2018-08-23T06:18:57.477Z,20.78
2018-08-23T06:19:57.501Z,20.75
2018-08-23T06:20:57.524Z,20.80
2018-08-23T06:21:57.546Z,20.78
2018-08-23T06:22:57.573Z,20.69
2018-08-23T06:23:57.598Z,20.74
2018-08-23T06:24:57.619Z,20.77
2018-08-23T06:25:57.643Z,20.78
2018-08-23T06:26:57.673Z,20.82
2018-08-23T06:27:57.694Z,20.87
2018-08-23T06:28:57.717Z,20.78
2018-08-23T06:29:57.739Z,20.95
2018-08-23T06:30:57.765Z,21.06
2018-08-23T06:31:57.791Z,21.00
2018-08-23T06:32:57.914Z,21.02
2018-08-23T06:33:57.885Z,20.90
2018-08-23T06:34:57.865Z,20.96
2018-08-23T06:35:57.891Z,20.95
2018-08-23T06:36:57.910Z,20.87
2018-08-23T06:37:57.935Z,20.93
2018-08-23T06:38:57.962Z,20.88
2018-08-23T06:39:57.988Z,20.87
2018-08-23T06:40:58.006Z,20.81
2018-08-23T06:41:58.031Z,20.88
2018-08-23T06:42:58.055Z,20.85
2018-08-23T06:43:58.079Z,20.82
2018-08-23T06:44:58.104Z,20.80
2018-08-23T06:45:58.178Z,20.81
2018-08-23T06:46:58.152Z,20.82
2018-08-23T06:47:58.177Z,20.82
2018-08-23T06:48:58.229Z,20.82
2018-08-23T06:49:58.225Z,20.80
2018-08-23T06:50:58.251Z,20.81
2018-08-23T06:51:58.274Z,20.81
2018-08-23T06:52:58.298Z,20.90
2018-08-23T06:53:58.324Z,20.97
2018-08-23T06:54:58.347Z,21.00
2018-08-23T06:55:58.371Z,21.05
2018-08-23T06:56:58.395Z,20.92
2018-08-23T06:57:58.422Z,21.05
2018-08-23T06:58:58.514Z,21.14
2018-08-23T06:59:58.472Z,21.11
2018-08-23T07:00:58.495Z,21.18
2018-08-23T07:01:58.522Z,21.22
2018-08-23T07:02:58.545Z,21.14
2018-08-23T07:03:58.571Z,21.32
2018-08-23T07:04:58.592Z,21.27
2018-08-23T07:05:58.639Z,21.40
2018-08-23T07:06:58.642Z,21.30
2018-08-23T07:07:58.665Z,21.33
2018-08-23T07:08:58.740Z,21.33
2018-08-23T07:09:58.712Z,21.37
2018-08-23T07:10:58.738Z,21.40
2018-08-23T07:11:58.762Z,21.58
2018-08-23T07:12:58.789Z,21.51
2018-08-23T07:13:58.810Z,21.57
2018-08-23T07:14:58.836Z,21.69
2018-08-23T07:15:58.860Z,21.70
2018-08-23T07:16:58.885Z,21.66
2018-08-23T07:17:58.913Z,21.67
2018-08-23T07:18:58.937Z,21.72
2018-08-23T07:19:58.959Z,21.80
2018-08-23T07:20:58.987Z,21.91
2018-08-23T07:21:59.007Z,21.89
2018-08-23T07:22:59.032Z,21.93
2018-08-23T07:23:59.057Z,21.95
2018-08-23T07:24:59.084Z,22.06
2018-08-23T07:25:59.108Z,22.15
2018-08-23T07:26:59.130Z,22.02
2018-08-23T07:27:59.155Z,22.10
2018-08-23T07:28:59.203Z,22.18
2018-08-23T07:29:59.246Z,22.15
2018-08-23T07:30:59.229Z,22.17
2018-08-23T07:31:59.558Z,22.15
2018-08-23T07:32:59.731Z,22.25
2018-08-23T07:33:59.328Z,22.28
2018-08-23T07:34:59.329Z,22.43
2018-08-23T07:35:59.355Z,22.35
2018-08-23T07:36:59.380Z,22.44
2018-08-23T07:37:59.404Z,22.44
2018-08-23T07:38:59.431Z,22.45
2018-08-23T07:39:59.457Z,22.44
2018-08-23T07:40:59.478Z,22.45
2018-08-23T07:41:59.503Z,22.53
2018-08-23T07:42:59.579Z,22.57
2018-08-23T07:43:59.557Z,22.63
2018-08-23T07:44:59.578Z,22.60
2018-08-23T07:45:59.617Z,22.59
2018-08-23T07:46:59.630Z,22.69
2018-08-23T07:48:00.105Z,22.66
2018-08-23T07:48:59.703Z,22.72
2018-08-23T07:49:59.703Z,22.73
2018-08-23T07:50:59.731Z,22.90
2018-08-23T07:51:59.758Z,23.02
2018-08-23T07:52:59.904Z,23.00
2018-08-23T07:53:59.805Z,22.93
2018-08-23T07:54:59.833Z,22.78
2018-08-23T07:55:59.857Z,22.84
2018-08-23T07:56:59.881Z,22.93
2018-08-23T07:57:59.907Z,22.94
2018-08-23T07:58:59.931Z,22.94
2018-08-23T07:59:59.963Z,22.93
2018-08-23T08:00:59.984Z,23.02
2018-08-23T08:02:00.008Z,23.13
2018-08-23T08:03:00.033Z,23.18
2018-08-23T08:04:00.057Z,23.20
2018-08-23T08:05:00.085Z,23.27
2018-08-23T08:06:00.107Z,23.17
2018-08-23T08:07:00.136Z,23.13
2018-08-23T08:08:00.158Z,23.21
2018-08-23T08:09:00.186Z,23.28
2018-08-23T08:10:00.211Z,23.21
2018-08-23T08:11:00.238Z,23.40
2018-08-23T08:12:00.263Z,23.46
2018-08-23T08:13:00.287Z,23.51
2018-08-23T08:14:00.311Z,23.39
2018-08-23T08:15:00.355Z,23.55
2018-08-23T08:16:00.366Z,23.47
2018-08-23T08:17:00.387Z,23.48
2018-08-23T08:18:00.417Z,23.61
2018-08-23T08:19:00.442Z,23.65
2018-08-23T08:20:00.465Z,23.69
2018-08-23T08:21:00.616Z,23.86
2018-08-23T08:22:00.517Z,23.84
2018-08-23T08:23:00.543Z,23.99
2018-08-23T08:24:00.573Z,23.92
2018-08-23T08:25:00.595Z,23.87
2018-08-23T08:26:00.623Z,23.98
2018-08-23T08:27:00.668Z,24.05
2018-08-23T08:28:00.674Z,24.01
2018-08-23T08:29:00.697Z,23.81
2018-08-23T08:30:00.723Z,23.68
2018-08-23T08:31:00.750Z,23.61
2018-08-23T08:32:00.776Z,23.69
2018-08-23T08:33:00.836Z,23.71
2018-08-23T08:34:01.077Z,23.78
2018-08-23T08:35:00.854Z,23.78
2018-08-23T08:36:00.880Z,23.50
2018-08-23T08:37:00.905Z,23.44
2018-08-23T08:38:00.931Z,23.56
2018-08-23T08:39:00.958Z,23.61
2018-08-23T08:40:00.986Z,23.71
2018-08-23T08:41:01.209Z,23.86
2018-08-23T08:42:01.069Z,24.02
2018-08-23T08:43:01.062Z,24.23
2018-08-23T08:44:01.089Z,24.30
2018-08-23T08:45:01.114Z,24.30
2018-08-23T08:46:01.141Z,24.40
2018-08-23T08:47:01.169Z,24.20
2018-08-23T08:48:01.192Z,24.14
2018-08-23T08:49:01.264Z,24.21
2018-08-23T08:50:01.243Z,24.18
2018-08-23T08:51:01.271Z,24.18
2018-08-23T08:52:01.298Z,24.11
2018-08-23T08:53:01.325Z,24.36
2018-08-23T08:54:01.347Z,24.38
2018-08-23T08:55:01.375Z,24.32
2018-08-23T08:56:01.401Z,24.36
2018-08-23T08:57:01.490Z,24.40
2018-08-23T08:58:01.453Z,24.28
2018-08-23T08:59:01.481Z,24.20
2018-08-23T09:00:01.505Z,24.20
2018-08-23T09:01:01.538Z,24.08
2018-08-23T09:02:01.561Z,24.16
2018-08-23T09:03:01.590Z,24.26
2018-08-23T09:04:01.619Z,24.38
2018-08-23T09:05:01.642Z,24.28
2018-08-23T09:06:01.663Z,24.23
2018-08-23T09:07:01.690Z,24.45
2018-08-23T09:08:01.717Z,24.54
2018-08-23T09:09:01.743Z,24.73
2018-08-23T09:10:01.767Z,24.70
2018-08-23T09:11:01.796Z,24.60
2018-08-23T09:12:01.819Z,24.58
2018-08-23T09:13:01.845Z,24.76
2018-08-23T09:14:01.874Z,24.88
2018-08-23T09:15:01.898Z,24.98
2018-08-23T09:16:01.925Z,25.01
2018-08-23T09:17:01.958Z,25.14
2018-08-23T09:18:01.981Z,25.04
2018-08-23T09:19:02.003Z,24.96
2018-08-23T09:20:02.036Z,24.69
2018-08-23T09:21:02.060Z,24.65
2018-08-23T09:22:02.082Z,24.54
2018-08-23T09:23:02.111Z,24.58
2018-08-23T09:24:02.138Z,24.66
2018-08-23T09:25:02.164Z,24.73
2018-08-23T09:26:02.190Z,24.73
2018-08-23T09:27:02.217Z,24.91
2018-08-23T09:28:02.244Z,24.85
2018-08-23T09:29:02.267Z,24.95
2018-08-23T09:30:02.297Z,25.07
2018-08-23T09:31:02.322Z,25.29
2018-08-23T09:32:02.388Z,25.41
2018-08-23T09:33:02.377Z,25.54
2018-08-23T09:34:02.401Z,25.70
2018-08-23T09:35:02.485Z,25.69
2018-08-23T09:36:02.455Z,25.65
2018-08-23T09:37:02.515Z,25.68
2018-08-23T09:38:02.510Z,25.75
2018-08-23T09:39:02.534Z,25.77
2018-08-23T09:40:02.561Z,25.75
2018-08-23T09:41:02.589Z,25.58
2018-08-23T09:42:02.614Z,25.41
2018-08-23T09:43:02.815Z,25.35
2018-08-23T09:44:02.670Z,25.35
2018-08-23T09:45:02.695Z,25.28
2018-08-23T09:46:02.721Z,25.28
2018-08-23T09:47:02.746Z,25.41
2018-08-23T09:48:02.778Z,25.68
2018-08-23T09:49:02.803Z,25.93
2018-08-23T09:50:02.869Z,25.99
2018-08-23T09:51:02.888Z,26.21
2018-08-23T09:52:02.882Z,26.31
2018-08-23T09:53:02.911Z,26.26
2018-08-23T09:54:02.936Z,26.41
2018-08-23T09:55:02.962Z,26.31
2018-08-23T09:56:02.990Z,26.26
2018-08-23T09:57:03.019Z,26.23
2018-08-23T09:58:03.045Z,26.28
2018-08-23T09:59:03.079Z,26.23
2018-08-23T10:00:03.100Z,25.84
2018-08-23T10:01:03.127Z,25.77
2018-08-23T10:02:03.154Z,25.91
2018-08-23T10:03:03.182Z,26.02
2018-08-23T10:04:03.210Z,26.29
2018-08-23T10:05:03.239Z,26.44
2018-08-23T10:06:03.265Z,26.70
2018-08-23T10:07:03.295Z,26.60
2018-08-23T10:08:03.316Z,26.53
2018-08-23T10:09:03.346Z,26.48
2018-08-23T10:10:03.370Z,26.51
2018-08-23T10:11:03.399Z,26.45
2018-08-23T10:12:03.431Z,26.34
2018-08-23T10:13:03.452Z,26.36
2018-08-23T10:14:03.481Z,26.13
2018-08-23T10:15:03.508Z,25.96
2018-08-23T10:16:03.536Z,25.95
2018-08-23T10:17:03.563Z,25.98
2018-08-23T10:18:03.590Z,25.99
2018-08-23T10:19:03.673Z,26.05
2018-08-23T10:20:03.698Z,26.34
2018-08-23T10:21:03.672Z,26.51
2018-08-23T10:22:04.153Z,26.70
2018-08-23T10:23:03.727Z,26.90
2018-08-23T10:24:03.760Z,26.99
2018-08-23T10:25:03.785Z,26.97
2018-08-23T10:26:03.809Z,26.93
2018-08-23T10:27:03.837Z,27.11
2018-08-23T10:28:03.866Z,27.10
2018-08-23T10:29:03.893Z,27.36
2018-08-23T10:30:03.924Z,27.48
2018-08-23T10:31:03.949Z,27.42
2018-08-23T10:32:04.019Z,27.39
2018-08-23T10:33:04.004Z,27.14
2018-08-23T10:34:04.032Z,27.11
2018-08-23T10:35:04.069Z,27.10
2018-08-23T10:36:04.088Z,27.18
2018-08-23T10:37:04.119Z,27.20
2018-08-23T10:38:04.195Z,27.18
2018-08-23T10:39:04.174Z,27.00
2018-08-23T10:40:04.204Z,26.85
2018-08-23T10:41:04.230Z,26.78
2018-08-23T10:42:04.316Z,27.02
2018-08-23T10:43:04.639Z,27.14
2018-08-23T10:44:04.719Z,27.26
2018-08-23T10:45:04.355Z,27.48
2018-08-23T10:46:04.372Z,27.54
2018-08-23T10:47:04.400Z,27.59
2018-08-23T10:48:04.429Z,27.26
2018-08-23T10:49:04.454Z,27.00
2018-08-23T10:50:04.485Z,26.60
2018-08-23T10:51:04.594Z,26.56
2018-08-23T10:52:04.540Z,26.43
2018-08-23T10:53:04.568Z,26.05
2018-08-23T10:54:04.600Z,25.96
2018-08-23T10:55:04.624Z,26.00
2018-08-23T10:56:04.652Z,25.99
2018-08-23T10:57:04.680Z,26.06
2018-08-23T10:58:04.711Z,25.99
2018-08-23T10:59:04.776Z,25.93
2018-08-23T11:00:04.812Z,25.90
2018-08-23T11:01:04.789Z,26.02
2018-08-23T11:02:04.820Z,26.13
2018-08-23T11:03:05.148Z,26.31
2018-08-23T11:04:04.874Z,26.45
2018-08-23T11:05:04.902Z,26.59
2018-08-23T11:06:04.957Z,26.65
2018-08-23T11:07:04.957Z,26.88
2018-08-23T11:08:04.987Z,26.96
2018-08-23T11:09:05.010Z,26.92
2018-08-23T11:10:05.041Z,26.85
2018-08-23T11:11:05.071Z,26.84
2018-08-23T11:12:05.094Z,26.92
2018-08-23T11:13:05.123Z,26.81
2018-08-23T11:14:05.151Z,26.41
2018-08-23T11:15:05.180Z,26.33
2018-08-23T11:16:05.205Z,26.26
2018-08-23T11:17:05.358Z,26.18
2018-08-23T11:18:05.263Z,26.19
2018-08-23T11:19:05.290Z,26.36
2018-08-23T11:20:05.317Z,26.31
2018-08-23T11:21:05.347Z,26.31
2018-08-23T11:22:05.370Z,26.34
2018-08-23T11:23:05.414Z,26.40
2018-08-23T11:24:05.425Z,26.43
2018-08-23T11:25:05.463Z,26.71
2018-08-23T11:26:05.480Z,26.90
2018-08-23T11:27:05.511Z,27.12
2018-08-23T11:28:05.538Z,27.30
2018-08-23T11:29:05.564Z,27.07
2018-08-23T11:30:05.590Z,27.08
2018-08-23T11:31:05.620Z,27.11
2018-08-23T11:32:05.646Z,27.14
2018-08-23T11:33:05.673Z,27.15
2018-08-23T11:34:05.702Z,27.14
2018-08-23T11:35:05.733Z,27.07
2018-08-23T11:36:05.758Z,27.20
2018-08-23T11:37:05.786Z,27.10
2018-08-23T11:38:05.817Z,27.21
2018-08-23T11:39:05.943Z,27.30
2018-08-23T11:40:05.871Z,27.37
2018-08-23T11:41:05.899Z,27.30
2018-08-23T11:42:05.926Z,27.12
2018-08-23T11:43:05.955Z,27.18
2018-08-23T11:44:05.981Z,27.15
2018-08-23T11:45:06.010Z,27.10
2018-08-23T11:46:06.036Z,27.17
2018-08-23T11:47:06.064Z,27.30
2018-08-23T11:48:06.091Z,27.26
2018-08-23T11:49:06.122Z,27.12
2018-08-23T11:50:06.148Z,27.15
2018-08-23T11:51:06.176Z,27.26
2018-08-23T11:52:06.207Z,27.39
2018-08-23T11:53:06.277Z,27.42
2018-08-23T11:54:06.260Z,27.39
2018-08-23T11:55:06.288Z,27.44
2018-08-23T11:56:06.322Z,27.48
2018-08-23T11:57:06.344Z,27.58
2018-08-23T11:58:06.466Z,27.68
2018-08-23T11:59:06.465Z,27.74
2018-08-23T12:00:06.432Z,27.67
2018-08-23T12:01:06.458Z,27.74
2018-08-23T12:02:06.484Z,27.83
2018-08-23T12:03:06.514Z,27.90
2018-08-23T12:04:06.545Z,28.00
2018-08-23T12:05:06.568Z,27.96
2018-08-23T12:06:06.597Z,27.89
2018-08-23T12:07:06.634Z,27.90
2018-08-23T12:08:06.657Z,27.80
2018-08-23T12:09:06.684Z,27.78
2018-08-23T12:10:06.711Z,27.58
2018-08-23T12:11:06.740Z,27.55
2018-08-23T12:12:06.769Z,27.64
2018-08-23T12:13:06.797Z,27.58
2018-08-23T12:14:06.825Z,27.40
2018-08-23T12:15:06.854Z,27.47
2018-08-23T12:16:06.908Z,27.54
2018-08-23T12:17:06.907Z,27.60
2018-08-23T12:18:06.935Z,27.55
2018-08-23T12:19:07.016Z,27.48
2018-08-23T12:20:06.995Z,27.51
2018-08-23T12:21:07.022Z,27.59
2018-08-23T12:22:07.048Z,27.51
2018-08-23T12:23:07.077Z,27.51
2018-08-23T12:24:07.104Z,27.44
2018-08-23T12:25:07.135Z,27.37
2018-08-23T12:26:07.190Z,27.51
2018-08-23T12:27:07.192Z,27.63
2018-08-23T12:28:07.220Z,27.71
2018-08-23T12:29:07.248Z,27.92
2018-08-23T12:30:07.273Z,28.14
2018-08-23T12:31:07.308Z,28.23
2018-08-23T12:32:07.332Z,28.30
2018-08-23T12:33:07.357Z,28.33
2018-08-23T12:34:07.387Z,28.29
2018-08-23T12:35:07.417Z,27.92
2018-08-23T12:36:07.445Z,27.45
2018-08-23T12:37:07.471Z,27.27
2018-08-23T12:38:07.519Z,27.36
2018-08-23T12:39:07.832Z,27.36
2018-08-23T12:40:07.560Z,27.48
2018-08-23T12:41:07.651Z,27.64
2018-08-23T12:42:07.613Z,27.74
2018-08-23T12:43:07.644Z,27.67
2018-08-23T12:44:07.669Z,27.68
2018-08-23T12:45:07.699Z,27.58
2018-08-23T12:46:07.729Z,27.58
2018-08-23T12:47:07.757Z,27.71
2018-08-23T12:48:07.782Z,27.82
2018-08-23T12:49:07.810Z,28.01
2018-08-23T12:50:07.838Z,28.19
2018-08-23T12:51:07.867Z,28.23
2018-08-23T12:52:07.895Z,28.15
2018-08-23T12:53:07.932Z,28.23